sensor_id;sensor_type;location;lat;lon;timestamp;P1;P2;P0
70915;PMS5003;58557;50.982;-3.222;2022-09-09T00:00:37;3;3;
70915;PMS5003;58557;50.982;-3.222;2022-09-09T00:03:05;2;2;
70915;PMS5003;58557;50.982;-3.222;2022-09-09T00:05:29;2;1;
70915;PMS5003;58557;50.982;-3.222;2022-09-09T00:07:54;1;1;
70915;PMS5003;58557;50.982;-3.222;2022-09-09T00:10:20;3;3;
70915;PMS5003;58557;50.982;-3.222;2022-09-09T00:12:50;2;2;
70915;PMS5003;58557;50.982;-3.222;2022-09-09T00:15:11;3;3;
70915;PMS5003;58557;50.982;-3.222;2022-09-09T00:17:36;4;4;
70915;PMS5003;58557;50.982;-3.222;2022-09-09T00:20:02;5;4;
70915;PMS5003;58557;50.982;-3.222;2022-09-09T00:22:27;4;4;
70915;PMS5003;58557;50.982;-3.222;2022-09-09T00:24:53;4;4;
70915;PMS5003;58557;50.982;-3.222;2022-09-09T00:27:19;5;4;
70915;PMS5003;58557;50.982;-3.222;2022-09-09T00:29:44;5;5;
70915;PMS5003;58557;50.982;-3.222;2022-09-09T00:32:11;11;9;
70915;PMS5003;58557;50.982;-3.222;2022-09-09T00:34:35;12;10;
70915;PMS5003;58557;50.982;-3.222;2022-09-09T00:37:00;10;9;
70915;PMS5003;58557;50.982;-3.222;2022-09-09T00:39:27;11;10;
70915;PMS5003;58557;50.982;-3.222;2022-09-09T00:41:55;12;10;
70915;PMS5003;58557;50.982;-3.222;2022-09-09T00:44:24;10;8;
70915;PMS5003;58557;50.982;-3.222;2022-09-09T00:46:48;12;12;
70915;PMS5003;58557;50.982;-3.222;2022-09-09T00:49:09;11;11;
70915;PMS5003;58557;50.982;-3.222;2022-09-09T00:51:36;18;15;
70915;PMS5003;58557;50.982;-3.222;2022-09-09T00:56:25;12;12;
70915;PMS5003;58557;50.982;-3.222;2022-09-09T00:58:58;12;12;
70915;PMS5003;58557;50.982;-3.222;2022-09-09T01:01:16;16;11;
70915;PMS5003;58557;50.982;-3.222;2022-09-09T01:03:42;11;11;
70915;PMS5003;58557;50.982;-3.222;2022-09-09T01:06:13;17;14;
70915;PMS5003;58557;50.982;-3.222;2022-09-09T01:08:37;16;13;
70915;PMS5003;58557;50.982;-3.222;2022-09-09T01:10:58;10;10;
70915;PMS5003;58557;50.982;-3.222;2022-09-09T01:13:24;12;12;
70915;PMS5003;58557;50.982;-3.222;2022-09-09T01:15:49;15;12;
70915;PMS5003;58557;50.982;-3.222;2022-09-09T01:18:16;13;10;
70915;PMS5003;58557;50.982;-3.222;2022-09-09T01:20:44;14;14;
70915;PMS5003;58557;50.982;-3.222;2022-09-09T01:27:59;12;10;
70915;PMS5003;58557;50.982;-3.222;2022-09-09T01:30:23;12;12;
70915;PMS5003;58557;50.982;-3.222;2022-09-09T01:32:49;13;13;
70915;PMS5003;58557;50.982;-3.222;2022-09-09T01:35:15;14;12;
70915;PMS5003;58557;50.982;-3.222;2022-09-09T01:37:39;13;13;
70915;PMS5003;58557;50.982;-3.222;2022-09-09T01:40:05;11;11;
70915;PMS5003;58557;50.982;-3.222;2022-09-09T01:42:30;11;10;
70915;PMS5003;58557;50.982;-3.222;2022-09-09T01:44:56;12;12;
70915;PMS5003;58557;50.982;-3.222;2022-09-09T01:47:22;9;9;
70915;PMS5003;58557;50.982;-3.222;2022-09-09T01:49:47;10;10;
70915;PMS5003;58557;50.982;-3.222;2022-09-09T01:52:13;13;11;
70915;PMS5003;58557;50.982;-3.222;2022-09-09T01:54:38;16;15;
70915;PMS5003;58557;50.982;-3.222;2022-09-09T01:57:06;12;12;
70915;PMS5003;58557;50.982;-3.222;2022-09-09T01:59:36;12;10;
70915;PMS5003;58557;50.982;-3.222;2022-09-09T02:01:58;18;16;
70915;PMS5003;58557;50.982;-3.222;2022-09-09T02:04:27;10;9;
70915;PMS5003;58557;50.982;-3.222;2022-09-09T02:06:45;14;13;
70915;PMS5003;58557;50.982;-3.222;2022-09-09T02:09:10;14;10;
70915;PMS5003;58557;50.982;-3.222;2022-09-09T02:11:36;14;11;
70915;PMS5003;58557;50.982;-3.222;2022-09-09T02:14:02;11;10;
70915;PMS5003;58557;50.982;-3.222;2022-09-09T02:16:28;12;12;
70915;PMS5003;58557;50.982;-3.222;2022-09-09T02:18:53;8;8;
70915;PMS5003;58557;50.982;-3.222;2022-09-09T02:21:20;11;10;
70915;PMS5003;58557;50.982;-3.222;2022-09-09T02:23:43;8;8;
70915;PMS5003;58557;50.982;-3.222;2022-09-09T02:26:09;10;9;
70915;PMS5003;58557;50.982;-3.222;2022-09-09T02:28:34;13;10;
70915;PMS5003;58557;50.982;-3.222;2022-09-09T02:31:00;9;8;
70915;PMS5003;58557;50.982;-3.222;2022-09-09T02:33:26;9;8;
70915;PMS5003;58557;50.982;-3.222;2022-09-09T02:35:51;8;8;
70915;PMS5003;58557;50.982;-3.222;2022-09-09T02:38:17;9;9;
70915;PMS5003;58557;50.982;-3.222;2022-09-09T02:40:47;8;8;
70915;PMS5003;58557;50.982;-3.222;2022-09-09T02:43:08;11;8;
70915;PMS5003;58557;50.982;-3.222;2022-09-09T02:45:36;7;7;
70915;PMS5003;58557;50.982;-3.222;2022-09-09T02:48:00;9;8;
70915;PMS5003;58557;50.982;-3.222;2022-09-09T02:50:25;10;9;
70915;PMS5003;58557;50.982;-3.222;2022-09-09T02:52:54;9;6;
70915;PMS5003;58557;50.982;-3.222;2022-09-09T02:55:17;10;10;
70915;PMS5003;58557;50.982;-3.222;2022-09-09T02:57:43;7;7;
70915;PMS5003;58557;50.982;-3.222;2022-09-09T03:00:08;7;6;
70915;PMS5003;58557;50.982;-3.222;2022-09-09T03:02:33;6;6;
70915;PMS5003;58557;50.982;-3.222;2022-09-09T03:04:58;7;6;
70915;PMS5003;58557;50.982;-3.222;2022-09-09T03:07:24;10;8;
70915;PMS5003;58557;50.982;-3.222;2022-09-09T03:09:50;7;7;
70915;PMS5003;58557;50.982;-3.222;2022-09-09T03:12:15;8;7;
70915;PMS5003;58557;50.982;-3.222;2022-09-09T03:14:42;6;6;
70915;PMS5003;58557;50.982;-3.222;2022-09-09T03:17:06;10;7;
70915;PMS5003;58557;50.982;-3.222;2022-09-09T03:19:32;8;7;
70915;PMS5003;58557;50.982;-3.222;2022-09-09T03:21:58;10;7;
70915;PMS5003;58557;50.982;-3.222;2022-09-09T03:24:23;5;5;
70915;PMS5003;58557;50.982;-3.222;2022-09-09T03:26:49;10;7;
70915;PMS5003;58557;50.982;-3.222;2022-09-09T03:29:14;7;7;
70915;PMS5003;58557;50.982;-3.222;2022-09-09T03:31:40;7;6;
70915;PMS5003;58557;50.982;-3.222;2022-09-09T03:34:06;6;5;
70915;PMS5003;58557;50.982;-3.222;2022-09-09T03:36:32;6;5;
70915;PMS5003;58557;50.982;-3.222;2022-09-09T03:38:57;5;5;
70915;PMS5003;58557;50.982;-3.222;2022-09-09T03:41:24;6;5;
70915;PMS5003;58557;50.982;-3.222;2022-09-09T03:43:49;5;4;
70915;PMS5003;58557;50.982;-3.222;2022-09-09T03:46:14;4;3;
70915;PMS5003;58557;50.982;-3.222;2022-09-09T03:48:40;6;6;
70915;PMS5003;58557;50.982;-3.222;2022-09-09T03:51:05;8;6;
70915;PMS5003;58557;50.982;-3.222;2022-09-09T03:53:31;8;6;
70915;PMS5003;58557;50.982;-3.222;2022-09-09T03:55:57;7;5;
70915;PMS5003;58557;50.982;-3.222;2022-09-09T03:58:25;8;6;
70915;PMS5003;58557;50.982;-3.222;2022-09-09T04:03:14;4;4;
70915;PMS5003;58557;50.982;-3.222;2022-09-09T04:05:40;5;4;
70915;PMS5003;58557;50.982;-3.222;2022-09-09T04:08:05;7;6;
70915;PMS5003;58557;50.982;-3.222;2022-09-09T04:10:31;6;5;
70915;PMS5003;58557;50.982;-3.222;2022-09-09T04:12:57;7;5;
70915;PMS5003;58557;50.982;-3.222;2022-09-09T04:15:23;4;4;
70915;PMS5003;58557;50.982;-3.222;2022-09-09T04:17:48;6;6;
70915;PMS5003;58557;50.982;-3.222;2022-09-09T04:20:14;6;6;
70915;PMS5003;58557;50.982;-3.222;2022-09-09T04:22:39;8;7;
70915;PMS5003;58557;50.982;-3.222;2022-09-09T04:25:05;5;5;
70915;PMS5003;58557;50.982;-3.222;2022-09-09T04:27:31;7;6;
70915;PMS5003;58557;50.982;-3.222;2022-09-09T04:29:56;5;4;
70915;PMS5003;58557;50.982;-3.222;2022-09-09T04:32:21;8;5;
70915;PMS5003;58557;50.982;-3.222;2022-09-09T04:34:47;5;5;
70915;PMS5003;58557;50.982;-3.222;2022-09-09T04:37:13;5;4;
70915;PMS5003;58557;50.982;-3.222;2022-09-09T04:39:39;5;5;
70915;PMS5003;58557;50.982;-3.222;2022-09-09T04:42:05;5;5;
70915;PMS5003;58557;50.982;-3.222;2022-09-09T04:44:30;6;4;
70915;PMS5003;58557;50.982;-3.222;2022-09-09T04:46:55;6;4;
70915;PMS5003;58557;50.982;-3.222;2022-09-09T04:49:21;7;5;
70915;PMS5003;58557;50.982;-3.222;2022-09-09T04:51:48;6;4;
70915;PMS5003;58557;50.982;-3.222;2022-09-09T04:54:12;4;4;
70915;PMS5003;58557;50.982;-3.222;2022-09-09T04:56:38;4;4;
70915;PMS5003;58557;50.982;-3.222;2022-09-09T04:59:04;5;4;
70915;PMS5003;58557;50.982;-3.222;2022-09-09T05:01:29;5;5;
70915;PMS5003;58557;50.982;-3.222;2022-09-09T05:03:55;4;4;
70915;PMS5003;58557;50.982;-3.222;2022-09-09T05:06:21;7;7;
70915;PMS5003;58557;50.982;-3.222;2022-09-09T05:08:46;6;4;
70915;PMS5003;58557;50.982;-3.222;2022-09-09T05:11:14;5;5;
70915;PMS5003;58557;50.982;-3.222;2022-09-09T05:13:37;6;6;
70915;PMS5003;58557;50.982;-3.222;2022-09-09T05:16:03;5;4;
70915;PMS5003;58557;50.982;-3.222;2022-09-09T05:18:29;9;9;
70915;PMS5003;58557;50.982;-3.222;2022-09-09T05:20:58;4;4;
70915;PMS5003;58557;50.982;-3.222;2022-09-09T05:23:20;7;5;
70915;PMS5003;58557;50.982;-3.222;2022-09-09T05:28:11;5;5;
70915;PMS5003;58557;50.982;-3.222;2022-09-09T05:30:37;7;5;
70915;PMS5003;58557;50.982;-3.222;2022-09-09T05:33:03;7;6;
70915;PMS5003;58557;50.982;-3.222;2022-09-09T05:35:28;5;5;
70915;PMS5003;58557;50.982;-3.222;2022-09-09T05:37:55;4;4;
70915;PMS5003;58557;50.982;-3.222;2022-09-09T05:40:21;8;5;
70915;PMS5003;58557;50.982;-3.222;2022-09-09T05:42:46;5;5;
70915;PMS5003;58557;50.982;-3.222;2022-09-09T05:45:11;6;4;
70915;PMS5003;58557;50.982;-3.222;2022-09-09T05:47:36;5;5;
70915;PMS5003;58557;50.982;-3.222;2022-09-09T05:50:03;9;7;
70915;PMS5003;58557;50.982;-3.222;2022-09-09T05:52:28;8;7;
70915;PMS5003;58557;50.982;-3.222;2022-09-09T05:54:53;7;6;
70915;PMS5003;58557;50.982;-3.222;2022-09-09T05:57:19;7;5;
70915;PMS5003;58557;50.982;-3.222;2022-09-09T05:59:45;10;6;
70915;PMS5003;58557;50.982;-3.222;2022-09-09T06:02:11;9;8;
70915;PMS5003;58557;50.982;-3.222;2022-09-09T06:04:36;8;5;
70915;PMS5003;58557;50.982;-3.222;2022-09-09T06:07:01;8;6;
70915;PMS5003;58557;50.982;-3.222;2022-09-09T06:09:26;7;6;
70915;PMS5003;58557;50.982;-3.222;2022-09-09T06:11:52;8;8;
70915;PMS5003;58557;50.982;-3.222;2022-09-09T06:14:17;7;7;
70915;PMS5003;58557;50.982;-3.222;2022-09-09T06:16:43;7;7;
70915;PMS5003;58557;50.982;-3.222;2022-09-09T06:19:09;5;5;
70915;PMS5003;58557;50.982;-3.222;2022-09-09T06:21:35;7;7;
70915;PMS5003;58557;50.982;-3.222;2022-09-09T06:24:00;9;6;
70915;PMS5003;58557;50.982;-3.222;2022-09-09T06:26:26;6;6;
70915;PMS5003;58557;50.982;-3.222;2022-09-09T06:28:52;9;5;
70915;PMS5003;58557;50.982;-3.222;2022-09-09T06:31:19;9;9;
70915;PMS5003;58557;50.982;-3.222;2022-09-09T06:33:43;10;8;
70915;PMS5003;58557;50.982;-3.222;2022-09-09T06:36:11;8;6;
70915;PMS5003;58557;50.982;-3.222;2022-09-09T06:38:34;7;7;
70915;PMS5003;58557;50.982;-3.222;2022-09-09T06:40:59;6;6;
70915;PMS5003;58557;50.982;-3.222;2022-09-09T06:43:25;7;7;
70915;PMS5003;58557;50.982;-3.222;2022-09-09T06:45:54;7;5;
70915;PMS5003;58557;50.982;-3.222;2022-09-09T06:48:16;6;6;
70915;PMS5003;58557;50.982;-3.222;2022-09-09T06:50:42;6;6;
70915;PMS5003;58557;50.982;-3.222;2022-09-09T06:53:09;9;8;
70915;PMS5003;58557;50.982;-3.222;2022-09-09T06:55:34;7;6;
70915;PMS5003;58557;50.982;-3.222;2022-09-09T06:57:59;6;4;
70915;PMS5003;58557;50.982;-3.222;2022-09-09T07:00:24;5;5;
70915;PMS5003;58557;50.982;-3.222;2022-09-09T07:02:50;8;6;
70915;PMS5003;58557;50.982;-3.222;2022-09-09T07:05:16;6;5;
70915;PMS5003;58557;50.982;-3.222;2022-09-09T07:07:42;6;5;
70915;PMS5003;58557;50.982;-3.222;2022-09-09T07:10:08;6;4;
70915;PMS5003;58557;50.982;-3.222;2022-09-09T07:12:33;5;4;
70915;PMS5003;58557;50.982;-3.222;2022-09-09T07:14:58;7;5;
70915;PMS5003;58557;50.982;-3.222;2022-09-09T07:17:24;4;4;
70915;PMS5003;58557;50.982;-3.222;2022-09-09T07:19:49;8;4;
70915;PMS5003;58557;50.982;-3.222;2022-09-09T07:22:15;6;6;
70915;PMS5003;58557;50.982;-3.222;2022-09-09T07:24:40;8;6;
70915;PMS5003;58557;50.982;-3.222;2022-09-09T07:27:06;7;6;
70915;PMS5003;58557;50.982;-3.222;2022-09-09T07:29:31;4;4;
70915;PMS5003;58557;50.982;-3.222;2022-09-09T07:31:57;5;5;
70915;PMS5003;58557;50.982;-3.222;2022-09-09T07:34:22;5;5;
70915;PMS5003;58557;50.982;-3.222;2022-09-09T07:36:48;4;3;
70915;PMS5003;58557;50.982;-3.222;2022-09-09T07:39:14;8;5;
70915;PMS5003;58557;50.982;-3.222;2022-09-09T07:41:40;3;3;
70915;PMS5003;58557;50.982;-3.222;2022-09-09T07:44:05;4;4;
70915;PMS5003;58557;50.982;-3.222;2022-09-09T07:46:31;5;5;
70915;PMS5003;58557;50.982;-3.222;2022-09-09T07:48:56;4;4;
70915;PMS5003;58557;50.982;-3.222;2022-09-09T07:51:23;6;4;
70915;PMS5003;58557;50.982;-3.222;2022-09-09T07:53:48;4;4;
70915;PMS5003;58557;50.982;-3.222;2022-09-09T07:56:14;5;5;
70915;PMS5003;58557;50.982;-3.222;2022-09-09T07:58:40;4;4;
70915;PMS5003;58557;50.982;-3.222;2022-09-09T08:01:06;4;3;
70915;PMS5003;58557;50.982;-3.222;2022-09-09T08:03:30;5;5;
70915;PMS5003;58557;50.982;-3.222;2022-09-09T08:06:00;4;4;
70915;PMS5003;58557;50.982;-3.222;2022-09-09T08:08:21;4;4;
70915;PMS5003;58557;50.982;-3.222;2022-09-09T08:10:47;7;5;
70915;PMS5003;58557;50.982;-3.222;2022-09-09T08:13:13;7;3;
70915;PMS5003;58557;50.982;-3.222;2022-09-09T08:15:38;5;4;
70915;PMS5003;58557;50.982;-3.222;2022-09-09T08:18:04;3;3;
70915;PMS5003;58557;50.982;-3.222;2022-09-09T08:20:30;3;3;
70915;PMS5003;58557;50.982;-3.222;2022-09-09T08:22:55;2;2;
70915;PMS5003;58557;50.982;-3.222;2022-09-09T08:25:21;5;5;
70915;PMS5003;58557;50.982;-3.222;2022-09-09T08:27:47;4;3;
70915;PMS5003;58557;50.982;-3.222;2022-09-09T08:30:12;4;3;
70915;PMS5003;58557;50.982;-3.222;2022-09-09T08:32:38;8;7;
70915;PMS5003;58557;50.982;-3.222;2022-09-09T08:35:04;3;3;
70915;PMS5003;58557;50.982;-3.222;2022-09-09T08:37:29;4;3;
70915;PMS5003;58557;50.982;-3.222;2022-09-09T08:39:55;3;2;
70915;PMS5003;58557;50.982;-3.222;2022-09-09T08:42:26;3;3;
70915;PMS5003;58557;50.982;-3.222;2022-09-09T08:44:50;5;3;
70915;PMS5003;58557;50.982;-3.222;2022-09-09T08:47:13;3;3;
70915;PMS5003;58557;50.982;-3.222;2022-09-09T08:49:40;2;2;
70915;PMS5003;58557;50.982;-3.222;2022-09-09T08:52:03;3;2;
70915;PMS5003;58557;50.982;-3.222;2022-09-09T08:54:30;3;3;
70915;PMS5003;58557;50.982;-3.222;2022-09-09T08:56:54;4;4;
70915;PMS5003;58557;50.982;-3.222;2022-09-09T08:59:20;5;4;
70915;PMS5003;58557;50.982;-3.222;2022-09-09T09:01:52;4;4;
70915;PMS5003;58557;50.982;-3.222;2022-09-09T09:04:14;6;4;
70915;PMS5003;58557;50.982;-3.222;2022-09-09T09:06:39;4;3;
70915;PMS5003;58557;50.982;-3.222;2022-09-09T09:09:02;4;3;
70915;PMS5003;58557;50.982;-3.222;2022-09-09T09:13:54;8;6;
70915;PMS5003;58557;50.982;-3.222;2022-09-09T09:16:21;4;4;
70915;PMS5003;58557;50.982;-3.222;2022-09-09T09:18:44;5;4;
70915;PMS5003;58557;50.982;-3.222;2022-09-09T09:21:12;4;3;
70915;PMS5003;58557;50.982;-3.222;2022-09-09T09:23:38;4;3;
70915;PMS5003;58557;50.982;-3.222;2022-09-09T09:26:01;6;6;
70915;PMS5003;58557;50.982;-3.222;2022-09-09T09:28:28;4;2;
70915;PMS5003;58557;50.982;-3.222;2022-09-09T09:30:53;4;4;
70915;PMS5003;58557;50.982;-3.222;2022-09-09T09:33:20;7;4;
70915;PMS5003;58557;50.982;-3.222;2022-09-09T09:35:44;5;5;
70915;PMS5003;58557;50.982;-3.222;2022-09-09T09:38:13;3;3;
70915;PMS5003;58557;50.982;-3.222;2022-09-09T09:40:35;5;5;
70915;PMS5003;58557;50.982;-3.222;2022-09-09T09:43:01;4;4;
70915;PMS5003;58557;50.982;-3.222;2022-09-09T09:45:28;5;4;
70915;PMS5003;58557;50.982;-3.222;2022-09-09T09:50:18;5;5;
70915;PMS5003;58557;50.982;-3.222;2022-09-09T09:52:51;6;6;
70915;PMS5003;58557;50.982;-3.222;2022-09-09T09:55:12;7;6;
70915;PMS5003;58557;50.982;-3.222;2022-09-09T09:57:36;6;5;
70915;PMS5003;58557;50.982;-3.222;2022-09-09T10:00:01;8;6;
70915;PMS5003;58557;50.982;-3.222;2022-09-09T10:02:31;6;6;
70915;PMS5003;58557;50.982;-3.222;2022-09-09T10:07:18;3;3;
70915;PMS5003;58557;50.982;-3.222;2022-09-09T10:09:43;5;5;
70915;PMS5003;58557;50.982;-3.222;2022-09-09T10:12:12;4;2;
70915;PMS5003;58557;50.982;-3.222;2022-09-09T10:14:35;5;4;
70915;PMS5003;58557;50.982;-3.222;2022-09-09T10:17:05;6;4;
70915;PMS5003;58557;50.982;-3.222;2022-09-09T10:19:29;8;7;
70915;PMS5003;58557;50.982;-3.222;2022-09-09T10:21:55;5;5;
70915;PMS5003;58557;50.982;-3.222;2022-09-09T10:26:44;4;4;
70915;PMS5003;58557;50.982;-3.222;2022-09-09T10:29:13;5;5;
70915;PMS5003;58557;50.982;-3.222;2022-09-09T10:31:34;4;3;
70915;PMS5003;58557;50.982;-3.222;2022-09-09T10:34:01;11;9;
70915;PMS5003;58557;50.982;-3.222;2022-09-09T10:36:25;3;3;
70915;PMS5003;58557;50.982;-3.222;2022-09-09T10:38:54;5;5;
70915;PMS5003;58557;50.982;-3.222;2022-09-09T10:41:18;4;3;
70915;PMS5003;58557;50.982;-3.222;2022-09-09T10:43:48;6;5;
70915;PMS5003;58557;50.982;-3.222;2022-09-09T10:46:08;3;3;
70915;PMS5003;58557;50.982;-3.222;2022-09-09T10:48:39;5;3;
70915;PMS5003;58557;50.982;-3.222;2022-09-09T10:51:02;4;4;
70915;PMS5003;58557;50.982;-3.222;2022-09-09T10:53:26;4;4;
70915;PMS5003;58557;50.982;-3.222;2022-09-09T10:55:50;6;4;
70915;PMS5003;58557;50.982;-3.222;2022-09-09T10:58:16;6;5;
70915;PMS5003;58557;50.982;-3.222;2022-09-09T11:00:41;3;3;
70915;PMS5003;58557;50.982;-3.222;2022-09-09T11:03:06;5;4;
70915;PMS5003;58557;50.982;-3.222;2022-09-09T11:05:33;5;4;
70915;PMS5003;58557;50.982;-3.222;2022-09-09T11:07:58;3;3;
70915;PMS5003;58557;50.982;-3.222;2022-09-09T11:10:23;6;5;
70915;PMS5003;58557;50.982;-3.222;2022-09-09T11:12:48;6;5;
70915;PMS5003;58557;50.982;-3.222;2022-09-09T11:15:17;4;4;
70915;PMS5003;58557;50.982;-3.222;2022-09-09T11:17:42;6;6;
70915;PMS5003;58557;50.982;-3.222;2022-09-09T11:20:05;4;4;
70915;PMS5003;58557;50.982;-3.222;2022-09-09T11:22:31;6;4;
70915;PMS5003;58557;50.982;-3.222;2022-09-09T11:24:57;4;4;
70915;PMS5003;58557;50.982;-3.222;2022-09-09T11:27:21;11;11;
70915;PMS5003;58557;50.982;-3.222;2022-09-09T11:29:59;7;6;
70915;PMS5003;58557;50.982;-3.222;2022-09-09T11:32:16;12;10;
70915;PMS5003;58557;50.982;-3.222;2022-09-09T11:34:40;3;3;
70915;PMS5003;58557;50.982;-3.222;2022-09-09T11:41:55;2;2;
70915;PMS5003;58557;50.982;-3.222;2022-09-09T11:44:23;4;4;
70915;PMS5003;58557;50.982;-3.222;2022-09-09T11:46:45;7;5;
70915;PMS5003;58557;50.982;-3.222;2022-09-09T11:51:36;11;6;
70915;PMS5003;58557;50.982;-3.222;2022-09-09T11:54:02;5;5;
70915;PMS5003;58557;50.982;-3.222;2022-09-09T11:56:29;6;4;
70915;PMS5003;58557;50.982;-3.222;2022-09-09T11:58:54;5;4;
70915;PMS5003;58557;50.982;-3.222;2022-09-09T12:01:27;6;4;
70915;PMS5003;58557;50.982;-3.222;2022-09-09T12:03:45;3;3;
70915;PMS5003;58557;50.982;-3.222;2022-09-09T12:06:11;4;2;
70915;PMS5003;58557;50.982;-3.222;2022-09-09T12:08:35;3;3;
70915;PMS5003;58557;50.982;-3.222;2022-09-09T12:11:02;6;5;
70915;PMS5003;58557;50.982;-3.222;2022-09-09T12:13:26;7;4;
70915;PMS5003;58557;50.982;-3.222;2022-09-09T12:15:52;7;6;
70915;PMS5003;58557;50.982;-3.222;2022-09-09T12:18:21;4;4;
70915;PMS5003;58557;50.982;-3.222;2022-09-09T12:23:21;4;4;
70915;PMS5003;58557;50.982;-3.222;2022-09-09T12:25:35;6;6;
70915;PMS5003;58557;50.982;-3.222;2022-09-09T12:28:02;4;4;
70915;PMS5003;58557;50.982;-3.222;2022-09-09T12:30:24;3;3;
70915;PMS5003;58557;50.982;-3.222;2022-09-09T12:35:17;4;3;
70915;PMS5003;58557;50.982;-3.222;2022-09-09T12:37:41;3;3;
70915;PMS5003;58557;50.982;-3.222;2022-09-09T12:40:18;6;5;
70915;PMS5003;58557;50.982;-3.222;2022-09-09T12:42:33;5;4;
70915;PMS5003;58557;50.982;-3.222;2022-09-09T12:44:58;5;4;
70915;PMS5003;58557;50.982;-3.222;2022-09-09T12:47:24;4;4;
70915;PMS5003;58557;50.982;-3.222;2022-09-09T12:49:48;4;4;
70915;PMS5003;58557;50.982;-3.222;2022-09-09T12:52:17;4;4;
70915;PMS5003;58557;50.982;-3.222;2022-09-09T12:54:42;4;4;
70915;PMS5003;58557;50.982;-3.222;2022-09-09T12:57:05;4;3;
70915;PMS5003;58557;50.982;-3.222;2022-09-09T12:59:35;6;5;
70915;PMS5003;58557;50.982;-3.222;2022-09-09T13:01:56;4;4;
70915;PMS5003;58557;50.982;-3.222;2022-09-09T13:04:22;3;3;
70915;PMS5003;58557;50.982;-3.222;2022-09-09T13:06:47;4;3;
70915;PMS5003;58557;50.982;-3.222;2022-09-09T13:09:13;4;4;
70915;PMS5003;58557;50.982;-3.222;2022-09-09T13:11:39;3;3;
70915;PMS5003;58557;50.982;-3.222;2022-09-09T13:14:04;4;4;
70915;PMS5003;58557;50.982;-3.222;2022-09-09T13:16:30;3;3;
70915;PMS5003;58557;50.982;-3.222;2022-09-09T13:18:55;7;4;
70915;PMS5003;58557;50.982;-3.222;2022-09-09T13:21:29;3;3;
70915;PMS5003;58557;50.982;-3.222;2022-09-09T13:23:50;4;4;
70915;PMS5003;58557;50.982;-3.222;2022-09-09T13:28:36;6;4;
70915;PMS5003;58557;50.982;-3.222;2022-09-09T13:31:03;5;4;
70915;PMS5003;58557;50.982;-3.222;2022-09-09T13:33:29;4;3;
70915;PMS5003;58557;50.982;-3.222;2022-09-09T13:35:54;4;4;
70915;PMS5003;58557;50.982;-3.222;2022-09-09T13:38:19;4;3;
70915;PMS5003;58557;50.982;-3.222;2022-09-09T13:40:54;6;5;
70915;PMS5003;58557;50.982;-3.222;2022-09-09T13:43:12;3;3;
70915;PMS5003;58557;50.982;-3.222;2022-09-09T13:45:37;3;3;
70915;PMS5003;58557;50.982;-3.222;2022-09-09T13:50:28;3;3;
70915;PMS5003;58557;50.982;-3.222;2022-09-09T13:52:53;4;3;
70915;PMS5003;58557;50.982;-3.222;2022-09-09T13:55:18;4;4;
70915;PMS5003;58557;50.982;-3.222;2022-09-09T14:00:10;4;4;
70915;PMS5003;58557;50.982;-3.222;2022-09-09T14:02:35;2;2;
70915;PMS5003;58557;50.982;-3.222;2022-09-09T14:05:00;5;3;
70915;PMS5003;58557;50.982;-3.222;2022-09-09T14:07:26;6;4;
70915;PMS5003;58557;50.982;-3.222;2022-09-09T14:09:51;5;5;
70915;PMS5003;58557;50.982;-3.222;2022-09-09T14:12:17;10;7;
70915;PMS5003;58557;50.982;-3.222;2022-09-09T14:14:42;4;4;
70915;PMS5003;58557;50.982;-3.222;2022-09-09T14:17:08;4;4;
70915;PMS5003;58557;50.982;-3.222;2022-09-09T14:19:33;6;4;
70915;PMS5003;58557;50.982;-3.222;2022-09-09T14:21:59;4;3;
70915;PMS5003;58557;50.982;-3.222;2022-09-09T14:24:26;6;6;
70915;PMS5003;58557;50.982;-3.222;2022-09-09T14:26:50;5;5;
70915;PMS5003;58557;50.982;-3.222;2022-09-09T14:29:16;6;4;
70915;PMS5003;58557;50.982;-3.222;2022-09-09T14:31:42;6;3;
70915;PMS5003;58557;50.982;-3.222;2022-09-09T14:34:07;5;5;
70915;PMS5003;58557;50.982;-3.222;2022-09-09T14:36:33;4;3;
70915;PMS5003;58557;50.982;-3.222;2022-09-09T14:38:59;6;5;
70915;PMS5003;58557;50.982;-3.222;2022-09-09T14:41:24;3;3;
70915;PMS5003;58557;50.982;-3.222;2022-09-09T14:43:49;3;3;
70915;PMS5003;58557;50.982;-3.222;2022-09-09T14:46:16;4;4;
70915;PMS5003;58557;50.982;-3.222;2022-09-09T14:48:41;3;3;
70915;PMS5003;58557;50.982;-3.222;2022-09-09T14:51:07;2;2;
70915;PMS5003;58557;50.982;-3.222;2022-09-09T14:53:32;5;3;
70915;PMS5003;58557;50.982;-3.222;2022-09-09T14:58:23;4;4;
70915;PMS5003;58557;50.982;-3.222;2022-09-09T15:00:49;4;3;
70915;PMS5003;58557;50.982;-3.222;2022-09-09T15:03:15;3;3;
70915;PMS5003;58557;50.982;-3.222;2022-09-09T15:05:40;3;3;
70915;PMS5003;58557;50.982;-3.222;2022-09-09T15:08:05;5;5;
70915;PMS5003;58557;50.982;-3.222;2022-09-09T15:10:31;4;4;
70915;PMS5003;58557;50.982;-3.222;2022-09-09T15:12:57;2;2;
70915;PMS5003;58557;50.982;-3.222;2022-09-09T15:15:22;2;2;
70915;PMS5003;58557;50.982;-3.222;2022-09-09T15:17:49;4;2;
70915;PMS5003;58557;50.982;-3.222;2022-09-09T15:20:13;1;1;
70915;PMS5003;58557;50.982;-3.222;2022-09-09T15:22:40;2;2;
70915;PMS5003;58557;50.982;-3.222;2022-09-09T15:25:05;2;2;
70915;PMS5003;58557;50.982;-3.222;2022-09-09T15:27:30;4;2;
70915;PMS5003;58557;50.982;-3.222;2022-09-09T15:29:55;3;3;
70915;PMS5003;58557;50.982;-3.222;2022-09-09T15:32:22;3;3;
70915;PMS5003;58557;50.982;-3.222;2022-09-09T15:34:47;2;2;
70915;PMS5003;58557;50.982;-3.222;2022-09-09T15:37:12;3;3;
70915;PMS5003;58557;50.982;-3.222;2022-09-09T15:39:38;5;4;
70915;PMS5003;58557;50.982;-3.222;2022-09-09T15:42:03;3;3;
70915;PMS5003;58557;50.982;-3.222;2022-09-09T15:44:29;3;3;
70915;PMS5003;58557;50.982;-3.222;2022-09-09T15:46:54;3;3;
70915;PMS5003;58557;50.982;-3.222;2022-09-09T15:49:22;5;3;
70915;PMS5003;58557;50.982;-3.222;2022-09-09T15:51:46;7;5;
70915;PMS5003;58557;50.982;-3.222;2022-09-09T15:54:12;6;4;
70915;PMS5003;58557;50.982;-3.222;2022-09-09T15:56:37;5;5;
70915;PMS5003;58557;50.982;-3.222;2022-09-09T15:59:02;4;4;
70915;PMS5003;58557;50.982;-3.222;2022-09-09T16:01:28;4;3;
70915;PMS5003;58557;50.982;-3.222;2022-09-09T16:03:56;3;3;
70915;PMS5003;58557;50.982;-3.222;2022-09-09T16:06:20;4;4;
70915;PMS5003;58557;50.982;-3.222;2022-09-09T16:08:45;4;4;
70915;PMS5003;58557;50.982;-3.222;2022-09-09T16:11:12;5;3;
70915;PMS5003;58557;50.982;-3.222;2022-09-09T16:13:36;3;3;
70915;PMS5003;58557;50.982;-3.222;2022-09-09T16:16:01;4;4;
70915;PMS5003;58557;50.982;-3.222;2022-09-09T16:20:53;2;2;
70915;PMS5003;58557;50.982;-3.222;2022-09-09T16:23:18;6;4;
70915;PMS5003;58557;50.982;-3.222;2022-09-09T16:25:44;5;5;
70915;PMS5003;58557;50.982;-3.222;2022-09-09T16:28:11;5;5;
70915;PMS5003;58557;50.982;-3.222;2022-09-09T16:30:36;7;7;
70915;PMS5003;58557;50.982;-3.222;2022-09-09T16:33:00;5;4;
70915;PMS5003;58557;50.982;-3.222;2022-09-09T16:35:27;2;2;
70915;PMS5003;58557;50.982;-3.222;2022-09-09T16:37:51;5;3;
70915;PMS5003;58557;50.982;-3.222;2022-09-09T16:40:17;3;3;
70915;PMS5003;58557;50.982;-3.222;2022-09-09T16:42:42;5;5;
70915;PMS5003;58557;50.982;-3.222;2022-09-09T16:45:09;2;2;
70915;PMS5003;58557;50.982;-3.222;2022-09-09T16:47:33;3;3;
70915;PMS5003;58557;50.982;-3.222;2022-09-09T16:49:59;3;3;
70915;PMS5003;58557;50.982;-3.222;2022-09-09T16:52:25;4;4;
70915;PMS5003;58557;50.982;-3.222;2022-09-09T16:54:51;3;3;
70915;PMS5003;58557;50.982;-3.222;2022-09-09T16:57:17;3;3;
70915;PMS5003;58557;50.982;-3.222;2022-09-09T16:59:41;3;3;
70915;PMS5003;58557;50.982;-3.222;2022-09-09T17:02:07;4;4;
70915;PMS5003;58557;50.982;-3.222;2022-09-09T17:04:32;5;5;